createdAt,value
2023-05-19T00:00:22.916Z,12.40
2023-05-19T00:02:51.842Z,12.30
2023-05-19T00:05:20.786Z,12.30
2023-05-19T00:07:52.961Z,12.20
2023-05-19T00:10:21.578Z,12.20
2023-05-19T00:12:51.365Z,12.10
2023-05-19T00:15:21.742Z,12.10
2023-05-19T00:17:49.829Z,12.00
2023-05-19T00:20:17.904Z,12.00
2023-05-19T00:22:45.862Z,12.00
2023-05-19T00:25:15.248Z,11.90
2023-05-19T00:27:43.337Z,11.90
2023-05-19T00:30:11.844Z,11.90
2023-05-19T00:32:39.848Z,11.90
2023-05-19T00:35:08.920Z,12.00
2023-05-19T00:37:36.896Z,12.00
2023-05-19T00:40:06.527Z,12.00
2023-05-19T00:42:35.948Z,12.00
2023-05-19T00:45:04.022Z,12.00
2023-05-19T00:47:32.080Z,12.00
2023-05-19T00:50:00.433Z,12.00
2023-05-19T00:52:29.234Z,12.00
2023-05-19T00:54:57.605Z,11.90
2023-05-19T00:57:27.016Z,11.90
2023-05-19T00:59:56.496Z,11.80
2023-05-19T01:02:24.644Z,11.80
2023-05-19T01:04:53.483Z,11.70
2023-05-19T01:07:23.370Z,11.70
2023-05-19T01:09:51.491Z,11.70
2023-05-19T01:12:19.604Z,11.70
2023-05-19T01:14:47.781Z,11.70
2023-05-19T01:17:27.002Z,11.60
2023-05-19T01:20:05.038Z,11.60
2023-05-19T01:22:44.208Z,11.60
2023-05-19T01:25:48.005Z,11.60
2023-05-19T01:28:56.306Z,11.50
2023-05-19T01:31:27.707Z,11.50
2023-05-19T01:33:56.452Z,11.50
2023-05-19T01:36:27.096Z,11.40
2023-05-19T01:38:57.775Z,11.40
2023-05-19T01:41:26.276Z,11.40
2023-05-19T01:43:54.296Z,11.30
2023-05-19T01:46:23.177Z,11.30
2023-05-19T01:48:54.375Z,11.30
2023-05-19T01:51:22.416Z,11.30
2023-05-19T01:53:50.446Z,11.30
2023-05-19T01:56:27.279Z,11.30
2023-05-19T01:59:04.945Z,11.30
2023-05-19T02:01:39.469Z,11.20
2023-05-19T02:04:19.699Z,11.20
2023-05-19T02:06:56.134Z,11.20
2023-05-19T02:09:27.922Z,11.10
2023-05-19T02:12:01.219Z,11.10
2023-05-19T02:14:34.833Z,11.10
2023-05-19T02:17:05.566Z,11.10
2023-05-19T02:19:40.555Z,11.00
2023-05-19T02:22:08.667Z,11.00
2023-05-19T02:24:37.547Z,10.90
2023-05-19T02:27:06.169Z,10.90
2023-05-19T02:29:34.177Z,10.90
2023-05-19T02:32:02.804Z,10.80
2023-05-19T02:34:30.783Z,10.80
2023-05-19T02:37:00.166Z,10.80
2023-05-19T02:39:34.896Z,10.80
2023-05-19T02:42:02.905Z,10.80
2023-05-19T02:44:30.940Z,10.80
2023-05-19T02:46:58.996Z,10.80
2023-05-19T02:49:27.110Z,10.80
2023-05-19T02:51:55.100Z,10.80
2023-05-19T02:54:24.440Z,10.80
2023-05-19T02:56:52.432Z,10.80
2023-05-19T02:59:20.385Z,10.80
2023-05-19T03:01:48.481Z,10.90
2023-05-19T03:04:16.513Z,10.90
2023-05-19T03:06:45.242Z,10.90
2023-05-19T03:09:13.701Z,10.90
2023-05-19T03:11:43.154Z,10.90
2023-05-19T03:14:12.047Z,10.90
2023-05-19T03:16:41.214Z,10.90
2023-05-19T03:19:09.900Z,11.00
2023-05-19T03:21:38.087Z,10.90
2023-05-19T03:24:06.678Z,10.90
2023-05-19T03:26:34.954Z,11.00
2023-05-19T03:29:04.350Z,10.90
2023-05-19T03:31:32.353Z,10.90
2023-05-19T03:34:00.461Z,10.90
2023-05-19T03:36:31.996Z,10.90
2023-05-19T03:39:00.158Z,11.00
2023-05-19T03:41:28.156Z,11.00
2023-05-19T03:43:56.162Z,11.00
2023-05-19T03:46:25.797Z,11.00
2023-05-19T03:48:53.924Z,10.90
2023-05-19T03:51:21.924Z,10.90
2023-05-19T03:53:49.921Z,10.90
2023-05-19T03:56:18.271Z,11.00
2023-05-19T03:58:47.107Z,10.90
2023-05-19T04:01:15.137Z,11.00
2023-05-19T04:03:44.540Z,11.00
2023-05-19T04:06:12.912Z,11.10
2023-05-19T04:08:41.016Z,11.20
2023-05-19T04:11:08.985Z,11.30
2023-05-19T04:13:36.967Z,11.40
2023-05-19T04:16:05.466Z,11.60
2023-05-19T04:18:33.495Z,11.70
2023-05-19T04:21:02.871Z,11.80
2023-05-19T04:23:31.610Z,11.90
2023-05-19T04:26:01.523Z,12.00
2023-05-19T04:28:29.886Z,12.10
2023-05-19T04:30:58.786Z,12.20
2023-05-19T04:33:29.323Z,12.30
2023-05-19T04:35:58.382Z,12.30
2023-05-19T04:38:29.957Z,12.40
2023-05-19T04:41:01.624Z,12.40
2023-05-19T04:43:29.757Z,12.50
2023-05-19T04:45:58.179Z,12.50
2023-05-19T04:48:27.400Z,12.50
2023-05-19T04:50:55.415Z,12.50
2023-05-19T04:53:25.658Z,12.60
2023-05-19T04:55:55.028Z,12.70
2023-05-19T04:58:25.718Z,12.80
2023-05-19T05:00:55.726Z,12.80
2023-05-19T05:03:23.971Z,12.90
2023-05-19T05:05:52.436Z,12.90
2023-05-19T05:08:23.142Z,12.90
2023-05-19T05:10:52.350Z,12.90
2023-05-19T05:13:23.948Z,12.90
2023-05-19T05:15:53.164Z,12.90
2023-05-19T05:18:21.886Z,12.80
2023-05-19T05:20:50.451Z,12.80
2023-05-19T05:23:19.157Z,12.80
2023-05-19T05:25:48.849Z,12.90
2023-05-19T05:28:17.201Z,12.80
2023-05-19T05:30:46.595Z,12.90
2023-05-19T05:33:14.774Z,12.90
2023-05-19T05:35:42.909Z,12.90
2023-05-19T05:38:11.535Z,13.00
2023-05-19T05:40:39.608Z,13.00
2023-05-19T05:43:07.614Z,13.10
2023-05-19T05:45:35.757Z,13.10
2023-05-19T05:48:06.226Z,13.20
2023-05-19T05:50:35.099Z,13.30
2023-05-19T05:53:04.669Z,13.40
2023-05-19T05:55:33.660Z,13.40
2023-05-19T05:58:02.314Z,13.50
2023-05-19T06:00:30.560Z,13.60
2023-05-19T06:02:59.234Z,13.80
2023-05-19T06:05:28.772Z,13.90
2023-05-19T06:07:57.010Z,14.10
2023-05-19T06:10:25.038Z,14.20
2023-05-19T06:12:53.144Z,14.30
2023-05-19T06:15:21.146Z,14.30
2023-05-19T06:17:49.216Z,14.40
2023-05-19T06:20:17.480Z,14.30
2023-05-19T06:22:46.816Z,14.40
2023-05-19T06:25:14.892Z,14.40
2023-05-19T06:27:43.539Z,14.30
2023-05-19T06:30:12.406Z,14.30
2023-05-19T06:32:40.573Z,14.30
2023-05-19T06:35:09.437Z,14.20
2023-05-19T06:37:37.411Z,14.20
2023-05-19T06:40:08.227Z,14.20
2023-05-19T06:42:36.251Z,14.30
2023-05-19T06:45:04.392Z,14.40
2023-05-19T06:47:32.454Z,14.40
2023-05-19T06:50:00.427Z,14.40
2023-05-19T06:52:28.463Z,14.40
2023-05-19T06:54:56.497Z,14.50
2023-05-19T06:57:25.861Z,14.50
2023-05-19T06:59:53.846Z,14.60
2023-05-19T07:02:21.843Z,14.60
2023-05-19T07:04:51.334Z,14.70
2023-05-19T07:07:19.335Z,14.80
2023-05-19T07:09:47.423Z,14.90
2023-05-19T07:12:15.483Z,14.90
2023-05-19T07:14:44.818Z,15.00
2023-05-19T07:17:12.836Z,15.00
2023-05-19T07:19:40.830Z,15.00
2023-05-19T07:22:08.819Z,15.10
2023-05-19T07:24:36.873Z,15.20
2023-05-19T07:27:05.315Z,15.30
2023-05-19T07:29:33.306Z,15.40
2023-05-19T07:32:02.817Z,15.40
2023-05-19T07:34:30.914Z,15.40
2023-05-19T07:36:58.954Z,15.50
2023-05-19T07:39:29.684Z,15.60
2023-05-19T07:41:57.993Z,15.70
2023-05-19T07:44:27.077Z,15.80
2023-05-19T07:46:55.147Z,15.90
2023-05-19T07:49:24.677Z,16.10
2023-05-19T07:51:52.728Z,16.30
2023-05-19T07:54:20.934Z,16.40
2023-05-19T07:56:49.184Z,16.40
2023-05-19T07:59:17.626Z,16.50
2023-05-19T08:01:45.734Z,16.60
2023-05-19T08:04:14.074Z,16.60
2023-05-19T08:06:44.553Z,16.70
2023-05-19T08:09:12.950Z,16.60
2023-05-19T08:11:41.084Z,16.60
2023-05-19T08:14:09.085Z,16.50
2023-05-19T08:16:37.117Z,16.50
2023-05-19T08:19:06.834Z,16.50
2023-05-19T08:21:35.526Z,16.60
2023-05-19T08:24:05.347Z,16.70
2023-05-19T08:26:35.060Z,16.80
2023-05-19T08:29:04.357Z,16.90
2023-05-19T08:31:32.672Z,17.00
2023-05-19T08:34:00.748Z,17.00
2023-05-19T08:36:29.455Z,16.90
2023-05-19T08:38:57.542Z,16.90
2023-05-19T08:41:27.054Z,16.90
2023-05-19T08:43:55.218Z,16.80
2023-05-19T08:46:25.986Z,16.80
2023-05-19T08:48:59.381Z,16.80
2023-05-19T08:51:37.817Z,16.90
2023-05-19T08:54:13.890Z,16.90
2023-05-19T08:56:44.855Z,17.00
2023-05-19T08:59:14.271Z,17.00
2023-05-19T09:01:45.626Z,17.10
2023-05-19T09:04:14.684Z,17.20
2023-05-19T09:06:44.988Z,17.30
2023-05-19T09:09:13.393Z,17.40
2023-05-19T09:11:41.483Z,17.50
2023-05-19T09:14:11.489Z,17.60
2023-05-19T09:16:40.133Z,17.70
2023-05-19T09:19:16.026Z,17.80
2023-05-19T09:21:45.718Z,18.00
2023-05-19T09:24:13.852Z,18.10
2023-05-19T09:26:43.609Z,18.20
2023-05-19T09:29:16.737Z,18.20
2023-05-19T09:31:55.962Z,18.20
2023-05-19T09:34:25.033Z,18.30
2023-05-19T09:36:54.230Z,18.30
2023-05-19T09:39:25.199Z,18.40
2023-05-19T09:41:53.816Z,18.70
2023-05-19T09:44:29.358Z,19.00
2023-05-19T09:46:58.275Z,19.30
2023-05-19T09:49:29.461Z,19.60
2023-05-19T09:51:58.616Z,19.70
2023-05-19T09:54:29.553Z,19.60
2023-05-19T09:57:01.327Z,19.50
2023-05-19T09:59:33.544Z,19.30
2023-05-19T10:02:03.372Z,19.20
2023-05-19T10:04:32.341Z,19.20
2023-05-19T10:07:00.859Z,19.30
2023-05-19T10:09:29.862Z,19.40
2023-05-19T10:11:59.226Z,19.40
2023-05-19T10:14:28.146Z,19.50
2023-05-19T10:16:59.484Z,19.50
2023-05-19T10:19:28.909Z,19.40
2023-05-19T10:21:57.382Z,19.30
2023-05-19T10:24:25.440Z,19.20
2023-05-19T10:26:58.141Z,19.30
2023-05-19T10:29:29.908Z,19.40
2023-05-19T10:32:05.291Z,19.50
2023-05-19T10:35:02.999Z,19.70
2023-05-19T10:37:40.931Z,19.80
2023-05-19T10:40:14.803Z,19.70
2023-05-19T10:42:52.425Z,19.60
2023-05-19T10:45:24.979Z,19.60
2023-05-19T10:47:56.073Z,19.70
2023-05-19T10:50:24.190Z,19.80
2023-05-19T10:52:55.647Z,19.80
2023-05-19T10:55:48.787Z,19.90
2023-05-19T10:58:16.929Z,19.90
2023-05-19T11:00:44.992Z,19.90
2023-05-19T11:03:18.851Z,20.00
2023-05-19T11:05:50.001Z,20.10
2023-05-19T11:08:18.719Z,20.30
2023-05-19T11:10:47.027Z,20.40
2023-05-19T11:13:22.992Z,20.60
2023-05-19T11:15:51.295Z,20.60
2023-05-19T11:18:21.419Z,20.60
2023-05-19T11:20:58.085Z,20.40
2023-05-19T11:23:27.179Z,20.30
2023-05-19T11:25:55.191Z,20.20
2023-05-19T11:28:26.101Z,20.30
2023-05-19T11:30:57.826Z,20.30
2023-05-19T11:33:28.061Z,20.30
2023-05-19T11:35:58.895Z,20.40
2023-05-19T11:38:28.448Z,20.50
2023-05-19T11:40:57.075Z,20.60
2023-05-19T11:43:25.754Z,20.90
2023-05-19T11:45:55.776Z,21.10
2023-05-19T11:48:24.546Z,21.30
2023-05-19T11:50:54.335Z,21.40
2023-05-19T11:53:22.570Z,21.50
2023-05-19T11:55:51.098Z,21.70
2023-05-19T11:58:19.548Z,21.80
2023-05-19T12:00:48.051Z,21.90
2023-05-19T12:03:17.368Z,21.90
2023-05-19T12:05:47.592Z,21.90
2023-05-19T12:08:18.597Z,21.80
2023-05-19T12:10:49.440Z,21.70
2023-05-19T12:13:17.809Z,21.60
2023-05-19T12:15:45.963Z,21.60
2023-05-19T12:18:14.052Z,21.60
2023-05-19T12:20:42.256Z,21.60
2023-05-19T12:23:10.808Z,21.70
2023-05-19T12:25:40.391Z,21.60
2023-05-19T12:28:08.485Z,21.60
2023-05-19T12:30:36.929Z,21.60
2023-05-19T12:33:05.388Z,21.70
2023-05-19T12:35:34.366Z,21.80
2023-05-19T12:38:05.667Z,21.90
2023-05-19T12:40:35.298Z,22.00
2023-05-19T12:43:05.729Z,22.10
2023-05-19T12:45:36.092Z,22.00
2023-05-19T12:48:05.982Z,21.80
2023-05-19T12:50:35.382Z,21.70
2023-05-19T12:53:03.694Z,21.60
2023-05-19T12:55:31.929Z,21.50
2023-05-19T12:58:00.388Z,21.50
2023-05-19T13:00:31.144Z,21.50
2023-05-19T13:03:01.990Z,21.50
2023-05-19T13:05:31.933Z,21.50
2023-05-19T13:08:01.987Z,21.60
2023-05-19T13:10:31.388Z,21.60
2023-05-19T13:13:01.094Z,21.60
2023-05-19T13:15:34.198Z,21.50
2023-05-19T13:18:03.869Z,21.50
2023-05-19T13:20:32.232Z,21.60
2023-05-19T13:23:00.792Z,21.80
2023-05-19T13:25:29.135Z,22.00
2023-05-19T13:27:59.351Z,22.00
2023-05-19T13:30:27.413Z,21.80
2023-05-19T13:32:57.046Z,21.90
2023-05-19T13:35:25.214Z,21.80
2023-05-19T13:37:53.249Z,21.70
2023-05-19T13:40:21.384Z,21.60
2023-05-19T13:42:49.873Z,21.50
2023-05-19T13:45:18.333Z,21.30
2023-05-19T13:47:46.412Z,21.30
2023-05-19T13:50:15.836Z,21.30
2023-05-19T13:52:43.932Z,21.20
2023-05-19T13:55:11.952Z,21.20
2023-05-19T13:57:41.543Z,21.30
2023-05-19T14:00:11.568Z,21.40
2023-05-19T14:02:39.951Z,21.50
2023-05-19T14:05:08.886Z,21.50
2023-05-19T14:07:38.428Z,21.50
2023-05-19T14:10:07.544Z,21.50
2023-05-19T14:12:43.713Z,21.40
2023-05-19T14:15:15.587Z,21.20
2023-05-19T14:17:43.679Z,20.90
2023-05-19T14:20:12.709Z,20.70
2023-05-19T14:22:42.301Z,20.60
2023-05-19T14:25:10.609Z,20.70
2023-05-19T14:27:39.861Z,20.80
2023-05-19T14:30:09.601Z,20.90
2023-05-19T14:32:37.620Z,21.10
2023-05-19T14:35:06.541Z,21.20
2023-05-19T14:37:34.529Z,21.30
2023-05-19T14:40:04.569Z,21.30
2023-05-19T14:42:32.618Z,21.50
2023-05-19T14:45:00.940Z,21.60
2023-05-19T14:47:28.989Z,21.70
2023-05-19T14:49:57.070Z,21.70
2023-05-19T14:52:26.182Z,21.80
2023-05-19T14:54:54.351Z,21.90
2023-05-19T14:57:23.850Z,22.00
2023-05-19T14:59:51.946Z,22.00
2023-05-19T15:02:19.964Z,21.90
2023-05-19T15:04:48.165Z,21.80
2023-05-19T15:07:16.378Z,21.60
2023-05-19T15:09:44.738Z,21.50
2023-05-19T15:12:12.763Z,21.30
2023-05-19T15:14:42.201Z,21.20
2023-05-19T15:17:10.295Z,21.00
2023-05-19T15:19:38.612Z,21.00
2023-05-19T15:22:06.815Z,21.00
2023-05-19T15:24:34.930Z,21.00
2023-05-19T15:27:03.241Z,21.10
2023-05-19T15:29:31.272Z,21.20
2023-05-19T15:32:00.668Z,21.30
2023-05-19T15:34:28.653Z,21.50
2023-05-19T15:36:56.664Z,21.50
2023-05-19T15:39:24.677Z,21.50
2023-05-19T15:41:52.756Z,21.30
2023-05-19T15:44:20.738Z,21.10
2023-05-19T15:46:48.843Z,21.00
2023-05-19T15:49:18.290Z,21.10
2023-05-19T15:51:46.594Z,21.30
2023-05-19T15:54:14.589Z,21.50
2023-05-19T15:56:42.602Z,21.70
2023-05-19T15:59:10.589Z,21.80
2023-05-19T16:01:38.700Z,21.90
2023-05-19T16:04:06.846Z,21.90
2023-05-19T16:06:36.258Z,22.00
2023-05-19T16:09:04.808Z,22.00
2023-05-19T16:11:32.798Z,22.10
2023-05-19T16:14:00.892Z,22.10
2023-05-19T16:16:28.863Z,22.00
2023-05-19T16:18:57.019Z,22.00
2023-05-19T16:21:25.036Z,21.90
2023-05-19T16:23:54.450Z,21.90
2023-05-19T16:26:22.737Z,21.90
2023-05-19T16:28:50.820Z,21.90
2023-05-19T16:31:18.817Z,21.90
2023-05-19T16:33:47.244Z,21.90
2023-05-19T16:36:15.256Z,21.80
2023-05-19T16:38:43.269Z,21.70
2023-05-19T16:41:13.988Z,21.60
2023-05-19T16:43:42.007Z,21.30
2023-05-19T16:46:12.135Z,21.10
2023-05-19T16:48:40.358Z,20.90
2023-05-19T16:51:08.330Z,20.80
2023-05-19T16:53:36.316Z,20.80
2023-05-19T16:56:04.488Z,20.90
2023-05-19T16:58:33.952Z,21.00
2023-05-19T17:01:02.850Z,21.00
2023-05-19T17:03:31.833Z,21.20
2023-05-19T17:06:00.914Z,21.30
2023-05-19T17:08:28.895Z,21.30
2023-05-19T17:10:56.895Z,21.20
2023-05-19T17:13:24.870Z,21.10
2023-05-19T17:15:54.331Z,21.20
2023-05-19T17:18:22.321Z,21.20
2023-05-19T17:20:50.625Z,21.10
2023-05-19T17:23:18.860Z,21.10
2023-05-19T17:25:47.160Z,21.00
2023-05-19T17:28:15.172Z,20.80
2023-05-19T17:30:43.170Z,20.60
2023-05-19T17:33:12.944Z,20.60
2023-05-19T17:35:41.365Z,20.50
2023-05-19T17:38:09.428Z,20.40
2023-05-19T17:40:38.604Z,20.30
2023-05-19T17:43:08.230Z,20.20
2023-05-19T17:45:36.244Z,20.20
2023-05-19T17:48:06.033Z,20.20
2023-05-19T17:50:35.571Z,20.20
2023-05-19T17:53:04.283Z,20.20
2023-05-19T17:55:32.911Z,20.10
2023-05-19T17:58:01.419Z,20.00
2023-05-19T18:00:30.156Z,20.00
2023-05-19T18:02:59.058Z,19.90
2023-05-19T18:05:27.927Z,19.80
2023-05-19T18:07:58.431Z,19.80
2023-05-19T18:10:28.419Z,19.80
2023-05-19T18:12:56.594Z,19.70
2023-05-19T18:15:25.595Z,19.70
2023-05-19T18:17:53.613Z,19.60
2023-05-19T18:20:21.825Z,19.60
2023-05-19T18:22:49.860Z,19.50
2023-05-19T18:25:20.071Z,19.40
2023-05-19T18:27:48.104Z,19.30
2023-05-19T18:30:16.232Z,19.30
2023-05-19T18:32:44.334Z,19.20
2023-05-19T18:35:12.541Z,19.10
2023-05-19T18:37:40.958Z,19.00
2023-05-19T18:40:09.872Z,19.00
2023-05-19T18:42:39.257Z,18.90
2023-05-19T18:45:08.312Z,18.90
2023-05-19T18:47:36.695Z,18.80
2023-05-19T18:50:05.097Z,18.70
2023-05-19T18:52:33.133Z,18.60
2023-05-19T18:55:01.228Z,18.60
2023-05-19T18:57:29.256Z,18.40
2023-05-19T18:59:58.623Z,18.40
2023-05-19T19:02:26.717Z,18.30
2023-05-19T19:04:54.770Z,18.30
2023-05-19T19:07:23.135Z,18.30
2023-05-19T19:09:51.766Z,18.20
2023-05-19T19:12:20.474Z,18.10
2023-05-19T19:14:48.763Z,18.20
2023-05-19T19:17:18.201Z,18.10
2023-05-19T19:19:47.307Z,18.00
2023-05-19T19:22:15.599Z,18.00
2023-05-19T19:24:43.793Z,17.90
2023-05-19T19:27:11.990Z,17.90
2023-05-19T19:29:40.063Z,17.90
2023-05-19T19:32:08.627Z,17.80
2023-05-19T19:34:38.408Z,17.80
2023-05-19T19:37:06.435Z,17.70
2023-05-19T19:39:34.425Z,17.70
2023-05-19T19:42:02.509Z,17.70
2023-05-19T19:44:30.521Z,17.60
2023-05-19T19:46:58.539Z,17.60
2023-05-19T19:49:26.894Z,17.60
2023-05-19T19:51:56.290Z,17.50
2023-05-19T19:54:24.322Z,17.50
2023-05-19T19:56:52.303Z,17.40
2023-05-19T19:59:20.819Z,17.30
2023-05-19T20:01:48.960Z,17.30
2023-05-19T20:04:17.193Z,17.20
2023-05-19T20:06:45.670Z,17.20
2023-05-19T20:09:15.113Z,17.20
2023-05-19T20:11:43.504Z,17.20
2023-05-19T20:14:11.519Z,17.10
2023-05-19T20:16:40.395Z,17.10
2023-05-19T20:19:09.454Z,17.10
2023-05-19T20:21:37.648Z,17.10
2023-05-19T20:24:06.104Z,17.00
2023-05-19T20:26:36.234Z,17.00
2023-05-19T20:29:04.239Z,17.00
2023-05-19T20:31:32.286Z,17.00
2023-05-19T20:34:01.658Z,17.00
2023-05-19T20:36:30.156Z,16.90
2023-05-19T20:38:58.261Z,16.90
2023-05-19T20:41:26.315Z,16.90
2023-05-19T20:43:57.222Z,16.90
2023-05-19T20:46:25.505Z,16.90
2023-05-19T20:48:53.593Z,16.90
2023-05-19T20:51:22.277Z,16.90
2023-05-19T20:53:50.554Z,16.90
2023-05-19T20:56:18.621Z,16.80
2023-05-19T20:58:46.831Z,16.80
2023-05-19T21:01:16.285Z,16.80
2023-05-19T21:03:44.256Z,16.70
2023-05-19T21:06:13.966Z,16.70
2023-05-19T21:08:42.213Z,16.60
2023-05-19T21:11:10.192Z,16.60
2023-05-19T21:13:39.247Z,16.60
2023-05-19T21:16:07.861Z,16.50
2023-05-19T21:18:37.412Z,16.50
2023-05-19T21:21:05.691Z,16.40
2023-05-19T21:23:33.674Z,16.40
2023-05-19T21:26:01.698Z,16.40
2023-05-19T21:28:29.688Z,16.30
2023-05-19T21:30:57.699Z,16.30
2023-05-19T21:33:25.713Z,16.30
2023-05-19T21:35:55.045Z,16.30
2023-05-19T21:38:24.342Z,16.30
2023-05-19T21:40:53.054Z,16.30
2023-05-19T21:43:21.797Z,16.20
2023-05-19T21:45:49.913Z,16.20
2023-05-19T21:48:18.081Z,16.20
2023-05-19T21:50:46.149Z,16.10
2023-05-19T21:53:15.584Z,16.10
2023-05-19T21:55:44.274Z,16.10
2023-05-19T21:58:12.288Z,16.00
2023-05-19T22:00:40.454Z,16.00
2023-05-19T22:03:08.659Z,16.00
2023-05-19T22:05:38.112Z,15.90
2023-05-19T22:08:06.343Z,15.90
2023-05-19T22:10:37.084Z,15.90
2023-05-19T22:13:05.475Z,15.80
2023-05-19T22:15:33.469Z,15.80
2023-05-19T22:18:01.538Z,15.70
2023-05-19T22:20:29.609Z,15.70
2023-05-19T22:22:59.314Z,15.60
2023-05-19T22:25:27.464Z,15.50
2023-05-19T22:27:57.071Z,15.50
2023-05-19T22:30:25.323Z,15.50
2023-05-19T22:32:53.399Z,15.50
2023-05-19T22:35:21.579Z,15.40
2023-05-19T22:37:51.169Z,15.40
2023-05-19T22:40:19.302Z,15.40
2023-05-19T22:42:47.449Z,15.30
2023-05-19T22:45:16.820Z,15.20
2023-05-19T22:47:44.921Z,15.20
2023-05-19T22:50:13.200Z,15.10
2023-05-19T22:52:41.194Z,15.10
2023-05-19T22:55:10.036Z,15.10
2023-05-19T22:57:38.021Z,15.00
2023-05-19T23:00:07.027Z,15.00
2023-05-19T23:02:36.768Z,15.00
2023-05-19T23:05:05.108Z,14.90
2023-05-19T23:07:33.114Z,14.90
2023-05-19T23:10:01.132Z,14.80
2023-05-19T23:12:29.172Z,14.80
2023-05-19T23:14:57.215Z,14.80
2023-05-19T23:17:25.290Z,14.80
2023-05-19T23:19:54.845Z,14.80
2023-05-19T23:22:22.934Z,14.80
2023-05-19T23:24:51.087Z,14.80
2023-05-19T23:27:19.531Z,14.70
2023-05-19T23:29:49.770Z,14.60
2023-05-19T23:32:17.856Z,14.60
2023-05-19T23:34:45.894Z,14.50
2023-05-19T23:37:15.302Z,14.50
2023-05-19T23:39:43.318Z,14.40
2023-05-19T23:42:11.524Z,14.40
2023-05-19T23:44:39.514Z,14.30
2023-05-19T23:47:07.612Z,14.30
2023-05-19T23:49:35.764Z,14.30
2023-05-19T23:52:03.761Z,14.30
2023-05-19T23:54:33.089Z,14.20
2023-05-19T23:57:04.123Z,14.20
2023-05-19T23:59:32.160Z,14.20
